Washington Court House, OH (43160)

8:32 AM EDT on July 23, 2014 (GMT -0400)
Slightly NW of WCH (KOHWASHI6) Elev 1020 ft | 39.57 °N, 83.50 °W | Change Station

Current weather conditions updated 14 minutes ago

Light Rain
Light Rain
70.2 °F
Feels Like 70.2 °F
N
2.2
Wind Variable Wind from NW

Today is forecast to be Much Cooler than yesterday. Afternoon thunderstorms.

Today
High -- | Low -- °F
--% Chance of Precip.
Yesterday
High -- | Low -- °F
Precip. -- in
6:25 AM 8:54 PM
Waning Crescent, 11% visible
Pressure 30.07 in
Visibility 4.0 miles
Clouds Overcast 7000 ft
Dew Point 66 °F
Humidity 87%
Rainfall 0.00 in
Snow Depth Not available.
UV 0 out of 12
Pollen 6.30 out of 12
Air Quality Not available.
Flu Activity Not available.
METAR KILN 231154Z AUTO 01007KT 4SM -RA OVC070 22/18 A3010 RMK AO2 LTG DSNT N AND NW RAB45 SLP181 P0001 60001 70001 T02170183 10233 20189 53022

More Conditions Fewer Conditions

Pressure 30.07 in
Visibility 4.0 miles
Clouds Overcast 7000 ft
Dew Point 66 °F
Humidity 87%
Rainfall 0.00 in
Snow Depth Not available.
UV 0 out of 12
Pollen 6.30 out of 12
Air Quality Not available.
Flu Activity Not available.
METAR KILN 231154Z AUTO 01007KT 4SM -RA OVC070 22/18 A3010 RMK AO2 LTG DSNT N AND NW RAB45 SLP181 P0001 60001 70001 T02170183 10233 20189 53022

More Conditions Fewer Conditions

10-Day Weather Forecast

Almanac

Astronomy

Jul. 23, 2014 Rise Set
Actual Time 6:25 AM EDT 8:54 PM EDT
Civil Twilight 5:54 AM EDT 9:25 PM EDT
Nautical Twilight 5:16 AM EDT 10:03 PM EDT
Astronomical Twilight 4:33 AM EDT 10:46 PM EDT
Moon 3:43 AM EDT 6:22 PM EDT
Length of Visible Light 15h 31m
Length of Day
14h 29m
Tomorrow will be 1m 40s shorter.
Waning Crescent, 11% of the Moon is Illuminated
Today
Waning Crescent
Jul 26
New
Aug 3
First Quarter
Aug 10
Full
Aug 17
Last Quarter

Today's Extremes

State Highs State Lows

Community

WunderPhotos

Upload Photos

1,736,580 photos uploaded!

Nearby

Snow Depth

Station Depth Elevation
No new snow has been reported.

Earthquake Activity

City Distance Mag. Time & Date
No recent earthquake activity has been reported nearby.
Minimum magnitude displayed is 2.5.

Coastal Water Temperatures

Place Temperature
No Stations Reporting

Nearby Weather Stations

Station Location Temp. Heat Index Dew Point Humidity Wind Precip. Elev Updated Type
Slightly NW of WCH, WASHINGTON COURT HOUSE, OH 70.2 °F - 66 °F 87% NW  at  2.2 mph - / hr 1020 ft 8:17 AM EDT Normal
Rosemoor, Jamestown, OH 68.4 °F - 67 °F 94% SE  at  2.2 mph 0.05 in / hr 1063 ft 8:31 AM EDT Rapid Fire
Jamestown, OH 68.1 °F - 66 °F 95% SW  at  0.0 mph 0.00 in / hr 1093 ft 8:31 AM EDT Rapid Fire
Union Twp., Wilmington, OH 69.1 °F - 68 °F 98% ESE  at  4.0 mph 0.04 in / hr 1038 ft 8:31 AM EDT Rapid Fire
Hillsboro, Hillsboro, OH 73.8 °F 76 °F 62 °F 66% North  at  10.4 mph 0.00 in / hr 1102 ft 8:32 AM EDT Rapid Fire
Chester Twp., Wilmington, OH 68.2 °F - 68 °F 100% ESE  at  0.0 mph - / hr 1025 ft 8:25 AM EDT Normal

Show More Stations Show Fewer Stations